sensor_id;sensor_type;location;lat;lon;timestamp;P1;durP1;ratioP1;P2;durP2;ratioP2
17886;SDS011;9069;52.044;7.472;2023-04-24T00:01:05;1.67;;;1.17;;
17886;SDS011;9069;52.044;7.472;2023-04-24T00:03:33;1.58;;;1.00;;
17886;SDS011;9069;52.044;7.472;2023-04-24T00:06:01;1.00;;;0.90;;
17886;SDS011;9069;52.044;7.472;2023-04-24T00:08:29;1.02;;;1.00;;
17886;SDS011;9069;52.044;7.472;2023-04-24T00:10:56;1.40;;;0.90;;
17886;SDS011;9069;52.044;7.472;2023-04-24T00:13:23;1.13;;;1.00;;
17886;SDS011;9069;52.044;7.472;2023-04-24T00:15:50;1.60;;;0.95;;
17886;SDS011;9069;52.044;7.472;2023-04-24T00:18:17;2.28;;;1.10;;
17886;SDS011;9069;52.044;7.472;2023-04-24T00:20:44;1.23;;;0.82;;
17886;SDS011;9069;52.044;7.472;2023-04-24T00:23:11;1.20;;;1.10;;
17886;SDS011;9069;52.044;7.472;2023-04-24T00:25:38;2.67;;;1.10;;
17886;SDS011;9069;52.044;7.472;2023-04-24T00:28:05;2.25;;;1.05;;
17886;SDS011;9069;52.044;7.472;2023-04-24T00:30:32;1.90;;;1.23;;
17886;SDS011;9069;52.044;7.472;2023-04-24T00:32:58;3.90;;;1.20;;
17886;SDS011;9069;52.044;7.472;2023-04-24T00:35:25;1.25;;;1.13;;
17886;SDS011;9069;52.044;7.472;2023-04-24T00:37:52;2.17;;;1.20;;
17886;SDS011;9069;52.044;7.472;2023-04-24T00:40:19;1.17;;;1.08;;
17886;SDS011;9069;52.044;7.472;2023-04-24T00:42:45;1.27;;;1.17;;
17886;SDS011;9069;52.044;7.472;2023-04-24T00:45:12;1.45;;;1.35;;
17886;SDS011;9069;52.044;7.472;2023-04-24T00:47:39;3.30;;;1.40;;
17886;SDS011;9069;52.044;7.472;2023-04-24T00:50:08;1.33;;;1.20;;
17886;SDS011;9069;52.044;7.472;2023-04-24T00:52:35;1.88;;;1.10;;
17886;SDS011;9069;52.044;7.472;2023-04-24T00:55:02;1.15;;;1.02;;
17886;SDS011;9069;52.044;7.472;2023-04-24T00:57:29;1.40;;;1.15;;
17886;SDS011;9069;52.044;7.472;2023-04-24T00:59:56;6.28;;;1.60;;
17886;SDS011;9069;52.044;7.472;2023-04-24T01:02:23;2.55;;;1.30;;
17886;SDS011;9069;52.044;7.472;2023-04-24T01:04:51;2.90;;;1.10;;
17886;SDS011;9069;52.044;7.472;2023-04-24T01:07:19;2.42;;;1.40;;
17886;SDS011;9069;52.044;7.472;2023-04-24T01:09:47;1.73;;;1.50;;
17886;SDS011;9069;52.044;7.472;2023-04-24T01:12:15;3.35;;;1.40;;
17886;SDS011;9069;52.044;7.472;2023-04-24T01:14:43;1.80;;;1.30;;
17886;SDS011;9069;52.044;7.472;2023-04-24T01:17:11;3.15;;;1.00;;
17886;SDS011;9069;52.044;7.472;2023-04-24T01:19:38;2.30;;;1.00;;
17886;SDS011;9069;52.044;7.472;2023-04-24T01:22:12;2.85;;;1.17;;
17886;SDS011;9069;52.044;7.472;2023-04-24T01:24:41;1.35;;;0.90;;
17886;SDS011;9069;52.044;7.472;2023-04-24T01:27:11;2.00;;;1.08;;
17886;SDS011;9069;52.044;7.472;2023-04-24T01:29:38;3.28;;;0.95;;
17886;SDS011;9069;52.044;7.472;2023-04-24T01:32:05;2.42;;;1.05;;
17886;SDS011;9069;52.044;7.472;2023-04-24T01:34:33;3.63;;;1.30;;
17886;SDS011;9069;52.044;7.472;2023-04-24T01:37:00;1.30;;;1.08;;
17886;SDS011;9069;52.044;7.472;2023-04-24T01:39:27;1.00;;;1.00;;
17886;SDS011;9069;52.044;7.472;2023-04-24T01:41:55;2.42;;;1.30;;
17886;SDS011;9069;52.044;7.472;2023-04-24T01:44:22;1.00;;;0.90;;
17886;SDS011;9069;52.044;7.472;2023-04-24T01:46:49;4.35;;;1.25;;
17886;SDS011;9069;52.044;7.472;2023-04-24T01:49:17;2.50;;;1.13;;
17886;SDS011;9069;52.044;7.472;2023-04-24T01:51:44;1.35;;;1.10;;
17886;SDS011;9069;52.044;7.472;2023-04-24T01:54:11;2.20;;;1.42;;
17886;SDS011;9069;52.044;7.472;2023-04-24T01:56:40;3.70;;;1.30;;
17886;SDS011;9069;52.044;7.472;2023-04-24T01:59:09;1.63;;;1.17;;
17886;SDS011;9069;52.044;7.472;2023-04-24T02:01:37;2.95;;;1.50;;
17886;SDS011;9069;52.044;7.472;2023-04-24T02:04:04;2.78;;;1.45;;
17886;SDS011;9069;52.044;7.472;2023-04-24T02:06:34;4.20;;;1.40;;
17886;SDS011;9069;52.044;7.472;2023-04-24T02:09:01;1.90;;;1.40;;
17886;SDS011;9069;52.044;7.472;2023-04-24T02:11:29;1.50;;;1.20;;
17886;SDS011;9069;52.044;7.472;2023-04-24T02:13:56;2.22;;;1.42;;
17886;SDS011;9069;52.044;7.472;2023-04-24T02:16:23;1.67;;;1.40;;
17886;SDS011;9069;52.044;7.472;2023-04-24T02:18:50;2.60;;;1.80;;
17886;SDS011;9069;52.044;7.472;2023-04-24T02:21:17;2.45;;;1.48;;
17886;SDS011;9069;52.044;7.472;2023-04-24T02:23:44;5.80;;;1.55;;
17886;SDS011;9069;52.044;7.472;2023-04-24T02:26:11;4.25;;;1.40;;
17886;SDS011;9069;52.044;7.472;2023-04-24T02:28:38;2.83;;;1.30;;
17886;SDS011;9069;52.044;7.472;2023-04-24T02:31:05;2.47;;;1.42;;
17886;SDS011;9069;52.044;7.472;2023-04-24T02:33:32;3.30;;;1.23;;
17886;SDS011;9069;52.044;7.472;2023-04-24T02:35:59;2.97;;;2.20;;
17886;SDS011;9069;52.044;7.472;2023-04-24T02:38:26;1.92;;;1.70;;
17886;SDS011;9069;52.044;7.472;2023-04-24T02:40:53;2.92;;;1.88;;
17886;SDS011;9069;52.044;7.472;2023-04-24T02:43:20;2.08;;;1.60;;
17886;SDS011;9069;52.044;7.472;2023-04-24T02:45:47;2.20;;;1.88;;
17886;SDS011;9069;52.044;7.472;2023-04-24T02:48:15;2.10;;;1.90;;
17886;SDS011;9069;52.044;7.472;2023-04-24T02:50:41;5.93;;;2.03;;
17886;SDS011;9069;52.044;7.472;2023-04-24T02:53:08;2.80;;;2.00;;
17886;SDS011;9069;52.044;7.472;2023-04-24T02:55:35;4.38;;;2.55;;
17886;SDS011;9069;52.044;7.472;2023-04-24T02:58:02;3.60;;;2.47;;
17886;SDS011;9069;52.044;7.472;2023-04-24T03:00:29;4.40;;;2.65;;
17886;SDS011;9069;52.044;7.472;2023-04-24T03:02:56;4.00;;;2.70;;
17886;SDS011;9069;52.044;7.472;2023-04-24T03:05:23;4.40;;;2.65;;
17886;SDS011;9069;52.044;7.472;2023-04-24T03:07:50;3.58;;;2.67;;
17886;SDS011;9069;52.044;7.472;2023-04-24T03:10:20;5.57;;;3.45;;
17886;SDS011;9069;52.044;7.472;2023-04-24T03:12:48;5.82;;;3.20;;
17886;SDS011;9069;52.044;7.472;2023-04-24T03:15:17;5.65;;;3.30;;
17886;SDS011;9069;52.044;7.472;2023-04-24T03:17:44;4.57;;;3.38;;
17886;SDS011;9069;52.044;7.472;2023-04-24T03:20:11;6.10;;;3.35;;
17886;SDS011;9069;52.044;7.472;2023-04-24T03:22:38;5.88;;;3.92;;
17886;SDS011;9069;52.044;7.472;2023-04-24T03:25:07;5.45;;;3.72;;
17886;SDS011;9069;52.044;7.472;2023-04-24T03:27:35;7.97;;;3.85;;
17886;SDS011;9069;52.044;7.472;2023-04-24T03:30:10;6.50;;;4.63;;
17886;SDS011;9069;52.044;7.472;2023-04-24T03:32:46;6.25;;;4.55;;
17886;SDS011;9069;52.044;7.472;2023-04-24T03:35:18;6.57;;;4.82;;
17886;SDS011;9069;52.044;7.472;2023-04-24T03:37:45;6.50;;;4.80;;
17886;SDS011;9069;52.044;7.472;2023-04-24T03:40:37;9.00;;;5.30;;
17886;SDS011;9069;52.044;7.472;2023-04-24T03:43:14;7.13;;;5.18;;
17886;SDS011;9069;52.044;7.472;2023-04-24T03:45:41;8.65;;;5.57;;
17886;SDS011;9069;52.044;7.472;2023-04-24T03:48:09;8.38;;;5.78;;
17886;SDS011;9069;52.044;7.472;2023-04-24T03:50:36;7.45;;;5.25;;
17886;SDS011;9069;52.044;7.472;2023-04-24T03:53:04;10.07;;;6.15;;
17886;SDS011;9069;52.044;7.472;2023-04-24T03:55:35;12.43;;;6.32;;
17886;SDS011;9069;52.044;7.472;2023-04-24T03:58:02;8.90;;;6.18;;
17886;SDS011;9069;52.044;7.472;2023-04-24T04:00:29;11.43;;;6.65;;
17886;SDS011;9069;52.044;7.472;2023-04-24T04:03:17;9.90;;;6.30;;
17886;SDS011;9069;52.044;7.472;2023-04-24T04:05:45;13.05;;;7.35;;
17886;SDS011;9069;52.044;7.472;2023-04-24T04:08:12;9.98;;;7.13;;
17886;SDS011;9069;52.044;7.472;2023-04-24T04:10:38;10.38;;;6.93;;
17886;SDS011;9069;52.044;7.472;2023-04-24T04:13:05;11.23;;;6.75;;
17886;SDS011;9069;52.044;7.472;2023-04-24T04:15:33;8.75;;;7.05;;
17886;SDS011;9069;52.044;7.472;2023-04-24T04:18:00;10.30;;;7.10;;
17886;SDS011;9069;52.044;7.472;2023-04-24T04:20:27;13.73;;;7.93;;
17886;SDS011;9069;52.044;7.472;2023-04-24T04:22:54;12.10;;;7.55;;
17886;SDS011;9069;52.044;7.472;2023-04-24T04:25:32;13.25;;;7.22;;
17886;SDS011;9069;52.044;7.472;2023-04-24T04:27:59;9.45;;;6.72;;
17886;SDS011;9069;52.044;7.472;2023-04-24T04:30:26;9.15;;;6.43;;
17886;SDS011;9069;52.044;7.472;2023-04-24T04:33:01;11.07;;;6.85;;
17886;SDS011;9069;52.044;7.472;2023-04-24T04:35:29;9.10;;;6.72;;
17886;SDS011;9069;52.044;7.472;2023-04-24T04:37:57;12.05;;;7.38;;
17886;SDS011;9069;52.044;7.472;2023-04-24T04:40:41;14.98;;;7.40;;
17886;SDS011;9069;52.044;7.472;2023-04-24T04:43:10;11.95;;;6.97;;
17886;SDS011;9069;52.044;7.472;2023-04-24T04:45:43;11.98;;;7.20;;
17886;SDS011;9069;52.044;7.472;2023-04-24T04:48:40;9.55;;;7.03;;
17886;SDS011;9069;52.044;7.472;2023-04-24T04:51:07;10.07;;;7.13;;
17886;SDS011;9069;52.044;7.472;2023-04-24T04:53:33;10.05;;;6.78;;
17886;SDS011;9069;52.044;7.472;2023-04-24T04:56:01;12.32;;;7.88;;
17886;SDS011;9069;52.044;7.472;2023-04-24T04:58:35;10.68;;;7.18;;
17886;SDS011;9069;52.044;7.472;2023-04-24T05:01:03;14.48;;;7.85;;
17886;SDS011;9069;52.044;7.472;2023-04-24T05:03:35;11.15;;;7.85;;
17886;SDS011;9069;52.044;7.472;2023-04-24T05:06:06;13.43;;;7.78;;
17886;SDS011;9069;52.044;7.472;2023-04-24T05:08:36;12.38;;;8.30;;
17886;SDS011;9069;52.044;7.472;2023-04-24T05:11:06;12.23;;;8.27;;
17886;SDS011;9069;52.044;7.472;2023-04-24T05:13:33;12.57;;;8.68;;
17886;SDS011;9069;52.044;7.472;2023-04-24T05:16:26;17.17;;;8.77;;
17886;SDS011;9069;52.044;7.472;2023-04-24T05:18:54;15.45;;;8.85;;
17886;SDS011;9069;52.044;7.472;2023-04-24T05:21:26;13.88;;;8.45;;
17886;SDS011;9069;52.044;7.472;2023-04-24T05:23:54;12.60;;;8.60;;
17886;SDS011;9069;52.044;7.472;2023-04-24T05:26:43;15.53;;;9.37;;
17886;SDS011;9069;52.044;7.472;2023-04-24T05:29:11;14.18;;;9.65;;
17886;SDS011;9069;52.044;7.472;2023-04-24T05:31:38;15.13;;;8.85;;
17886;SDS011;9069;52.044;7.472;2023-04-24T05:34:04;12.23;;;8.63;;
17886;SDS011;9069;52.044;7.472;2023-04-24T05:36:31;12.68;;;8.80;;
17886;SDS011;9069;52.044;7.472;2023-04-24T05:38:58;16.90;;;8.88;;
17886;SDS011;9069;52.044;7.472;2023-04-24T05:41:25;13.02;;;9.57;;
17886;SDS011;9069;52.044;7.472;2023-04-24T05:43:51;18.75;;;9.65;;
17886;SDS011;9069;52.044;7.472;2023-04-24T05:46:19;15.75;;;8.90;;
17886;SDS011;9069;52.044;7.472;2023-04-24T05:48:46;13.85;;;8.63;;
17886;SDS011;9069;52.044;7.472;2023-04-24T05:51:13;13.55;;;8.63;;
17886;SDS011;9069;52.044;7.472;2023-04-24T05:53:40;17.75;;;8.93;;
17886;SDS011;9069;52.044;7.472;2023-04-24T05:56:06;12.38;;;8.05;;
17886;SDS011;9069;52.044;7.472;2023-04-24T05:58:34;13.30;;;8.20;;
17886;SDS011;9069;52.044;7.472;2023-04-24T06:01:01;13.90;;;7.93;;
17886;SDS011;9069;52.044;7.472;2023-04-24T06:03:29;13.68;;;8.55;;
17886;SDS011;9069;52.044;7.472;2023-04-24T06:05:56;12.10;;;7.68;;
17886;SDS011;9069;52.044;7.472;2023-04-24T06:08:23;12.65;;;8.40;;
17886;SDS011;9069;52.044;7.472;2023-04-24T06:10:51;15.57;;;9.20;;
17886;SDS011;9069;52.044;7.472;2023-04-24T06:13:21;13.55;;;7.75;;
17886;SDS011;9069;52.044;7.472;2023-04-24T06:16:22;11.40;;;8.55;;
17886;SDS011;9069;52.044;7.472;2023-04-24T06:18:56;13.55;;;8.25;;
17886;SDS011;9069;52.044;7.472;2023-04-24T06:21:23;9.90;;;8.18;;
17886;SDS011;9069;52.044;7.472;2023-04-24T06:23:50;9.90;;;7.53;;
17886;SDS011;9069;52.044;7.472;2023-04-24T06:26:17;15.45;;;8.27;;
17886;SDS011;9069;52.044;7.472;2023-04-24T06:28:43;11.23;;;7.15;;
17886;SDS011;9069;52.044;7.472;2023-04-24T06:31:10;14.95;;;8.85;;
17886;SDS011;9069;52.044;7.472;2023-04-24T06:33:37;15.60;;;7.85;;
17886;SDS011;9069;52.044;7.472;2023-04-24T06:36:04;11.40;;;7.47;;
17886;SDS011;9069;52.044;7.472;2023-04-24T06:38:31;11.10;;;7.30;;
17886;SDS011;9069;52.044;7.472;2023-04-24T06:40:58;9.43;;;6.68;;
17886;SDS011;9069;52.044;7.472;2023-04-24T06:43:24;9.98;;;6.40;;
17886;SDS011;9069;52.044;7.472;2023-04-24T06:45:51;11.23;;;6.00;;
17886;SDS011;9069;52.044;7.472;2023-04-24T06:48:18;11.20;;;5.55;;
17886;SDS011;9069;52.044;7.472;2023-04-24T06:50:45;6.78;;;5.07;;
17886;SDS011;9069;52.044;7.472;2023-04-24T06:53:13;7.00;;;5.50;;
17886;SDS011;9069;52.044;7.472;2023-04-24T06:55:40;8.40;;;5.32;;
17886;SDS011;9069;52.044;7.472;2023-04-24T06:58:07;7.88;;;4.78;;
17886;SDS011;9069;52.044;7.472;2023-04-24T07:00:34;6.30;;;4.60;;
17886;SDS011;9069;52.044;7.472;2023-04-24T07:03:00;10.25;;;5.03;;
17886;SDS011;9069;52.044;7.472;2023-04-24T07:05:28;6.07;;;4.63;;
17886;SDS011;9069;52.044;7.472;2023-04-24T07:07:55;8.10;;;4.85;;
17886;SDS011;9069;52.044;7.472;2023-04-24T07:10:24;5.15;;;4.65;;
17886;SDS011;9069;52.044;7.472;2023-04-24T07:12:53;6.30;;;5.45;;
17886;SDS011;9069;52.044;7.472;2023-04-24T07:15:20;6.75;;;5.78;;
17886;SDS011;9069;52.044;7.472;2023-04-24T07:17:46;8.88;;;6.10;;
17886;SDS011;9069;52.044;7.472;2023-04-24T07:20:13;7.50;;;6.70;;
17886;SDS011;9069;52.044;7.472;2023-04-24T07:22:40;9.50;;;6.78;;
17886;SDS011;9069;52.044;7.472;2023-04-24T07:25:07;7.80;;;6.65;;
17886;SDS011;9069;52.044;7.472;2023-04-24T07:27:35;8.45;;;6.68;;
17886;SDS011;9069;52.044;7.472;2023-04-24T07:30:03;10.13;;;6.90;;
17886;SDS011;9069;52.044;7.472;2023-04-24T07:32:30;8.15;;;6.90;;
17886;SDS011;9069;52.044;7.472;2023-04-24T07:34:57;10.60;;;6.70;;
17886;SDS011;9069;52.044;7.472;2023-04-24T07:37:23;8.73;;;6.50;;
17886;SDS011;9069;52.044;7.472;2023-04-24T07:39:50;8.68;;;5.63;;
17886;SDS011;9069;52.044;7.472;2023-04-24T07:42:17;6.95;;;5.57;;
17886;SDS011;9069;52.044;7.472;2023-04-24T07:44:44;6.40;;;5.00;;
17886;SDS011;9069;52.044;7.472;2023-04-24T07:47:11;5.28;;;4.78;;
17886;SDS011;9069;52.044;7.472;2023-04-24T07:49:38;6.75;;;5.68;;
17886;SDS011;9069;52.044;7.472;2023-04-24T07:52:05;5.82;;;4.95;;
17886;SDS011;9069;52.044;7.472;2023-04-24T07:54:32;7.93;;;4.68;;
17886;SDS011;9069;52.044;7.472;2023-04-24T07:56:58;6.30;;;4.93;;
17886;SDS011;9069;52.044;7.472;2023-04-24T07:59:26;5.72;;;4.20;;
17886;SDS011;9069;52.044;7.472;2023-04-24T08:01:53;6.93;;;4.68;;
17886;SDS011;9069;52.044;7.472;2023-04-24T08:04:20;5.43;;;4.35;;
17886;SDS011;9069;52.044;7.472;2023-04-24T08:06:47;8.80;;;4.90;;
17886;SDS011;9069;52.044;7.472;2023-04-24T08:09:14;5.68;;;4.25;;
17886;SDS011;9069;52.044;7.472;2023-04-24T08:11:41;5.75;;;4.43;;
17886;SDS011;9069;52.044;7.472;2023-04-24T08:14:08;5.00;;;4.43;;
17886;SDS011;9069;52.044;7.472;2023-04-24T08:16:34;6.03;;;4.60;;
17886;SDS011;9069;52.044;7.472;2023-04-24T08:19:01;6.78;;;4.63;;
17886;SDS011;9069;52.044;7.472;2023-04-24T08:21:28;7.70;;;4.07;;
17886;SDS011;9069;52.044;7.472;2023-04-24T08:23:55;6.90;;;5.45;;
17886;SDS011;9069;52.044;7.472;2023-04-24T08:26:21;7.32;;;5.68;;
17886;SDS011;9069;52.044;7.472;2023-04-24T08:28:49;6.53;;;5.00;;
17886;SDS011;9069;52.044;7.472;2023-04-24T08:31:15;7.70;;;5.82;;
17886;SDS011;9069;52.044;7.472;2023-04-24T08:33:42;6.30;;;4.82;;
17886;SDS011;9069;52.044;7.472;2023-04-24T08:36:11;6.78;;;5.05;;
17886;SDS011;9069;52.044;7.472;2023-04-24T08:38:37;4.93;;;4.22;;
17886;SDS011;9069;52.044;7.472;2023-04-24T08:41:07;4.30;;;3.90;;
17886;SDS011;9069;52.044;7.472;2023-04-24T08:43:35;4.20;;;3.70;;
17886;SDS011;9069;52.044;7.472;2023-04-24T08:46:04;5.05;;;4.30;;
17886;SDS011;9069;52.044;7.472;2023-04-24T08:48:37;3.58;;;3.28;;
17886;SDS011;9069;52.044;7.472;2023-04-24T08:51:06;3.47;;;2.92;;
17886;SDS011;9069;52.044;7.472;2023-04-24T08:53:35;3.15;;;2.63;;
17886;SDS011;9069;52.044;7.472;2023-04-24T08:56:02;3.13;;;2.70;;
17886;SDS011;9069;52.044;7.472;2023-04-24T08:58:29;3.55;;;2.60;;
17886;SDS011;9069;52.044;7.472;2023-04-24T09:00:58;2.80;;;2.50;;
17886;SDS011;9069;52.044;7.472;2023-04-24T09:03:26;4.03;;;2.20;;
17886;SDS011;9069;52.044;7.472;2023-04-24T09:05:55;4.68;;;2.58;;
17886;SDS011;9069;52.044;7.472;2023-04-24T09:08:24;2.67;;;2.40;;
17886;SDS011;9069;52.044;7.472;2023-04-24T09:10:52;2.70;;;2.05;;
17886;SDS011;9069;52.044;7.472;2023-04-24T09:13:19;3.50;;;2.00;;
17886;SDS011;9069;52.044;7.472;2023-04-24T09:15:46;2.20;;;1.75;;
17886;SDS011;9069;52.044;7.472;2023-04-24T09:18:13;2.10;;;1.90;;
17886;SDS011;9069;52.044;7.472;2023-04-24T09:23:35;4.25;;;2.08;;
17886;SDS011;9069;52.044;7.472;2023-04-24T09:26:02;2.33;;;2.00;;
17886;SDS011;9069;52.044;7.472;2023-04-24T09:28:35;3.13;;;2.17;;
17886;SDS011;9069;52.044;7.472;2023-04-24T09:33:50;3.63;;;2.00;;
17886;SDS011;9069;52.044;7.472;2023-04-24T09:36:26;3.60;;;2.25;;
17886;SDS011;9069;52.044;7.472;2023-04-24T09:38:57;2.10;;;1.90;;
17886;SDS011;9069;52.044;7.472;2023-04-24T09:41:24;2.47;;;2.03;;
17886;SDS011;9069;52.044;7.472;2023-04-24T09:43:53;2.95;;;2.05;;
17886;SDS011;9069;52.044;7.472;2023-04-24T09:46:21;4.70;;;2.25;;
17886;SDS011;9069;52.044;7.472;2023-04-24T09:48:56;2.10;;;1.90;;
17886;SDS011;9069;52.044;7.472;2023-04-24T09:51:32;2.20;;;1.98;;
17886;SDS011;9069;52.044;7.472;2023-04-24T09:54:03;5.53;;;2.10;;
17886;SDS011;9069;52.044;7.472;2023-04-24T09:56:33;2.92;;;1.90;;
17886;SDS011;9069;52.044;7.472;2023-04-24T09:59:04;2.45;;;2.00;;
17886;SDS011;9069;52.044;7.472;2023-04-24T10:01:32;2.65;;;1.85;;
17886;SDS011;9069;52.044;7.472;2023-04-24T10:03:59;2.20;;;1.58;;
17886;SDS011;9069;52.044;7.472;2023-04-24T10:06:33;2.10;;;1.60;;
17886;SDS011;9069;52.044;7.472;2023-04-24T10:09:01;2.97;;;2.00;;
17886;SDS011;9069;52.044;7.472;2023-04-24T10:11:28;12.43;;;5.45;;
17886;SDS011;9069;52.044;7.472;2023-04-24T10:13:56;4.40;;;2.85;;
17886;SDS011;9069;52.044;7.472;2023-04-24T10:16:24;4.30;;;3.33;;
17886;SDS011;9069;52.044;7.472;2023-04-24T10:18:53;3.85;;;2.60;;
17886;SDS011;9069;52.044;7.472;2023-04-24T10:21:21;2.90;;;1.88;;
17886;SDS011;9069;52.044;7.472;2023-04-24T10:23:48;2.05;;;1.85;;
17886;SDS011;9069;52.044;7.472;2023-04-24T10:26:16;3.63;;;1.98;;
17886;SDS011;9069;52.044;7.472;2023-04-24T10:28:45;1.45;;;1.35;;
17886;SDS011;9069;52.044;7.472;2023-04-24T10:31:13;2.30;;;1.90;;
17886;SDS011;9069;52.044;7.472;2023-04-24T10:33:41;3.45;;;2.00;;
17886;SDS011;9069;52.044;7.472;2023-04-24T10:36:09;3.72;;;2.50;;
17886;SDS011;9069;52.044;7.472;2023-04-24T10:38:38;8.48;;;2.60;;
17886;SDS011;9069;52.044;7.472;2023-04-24T10:41:11;5.18;;;2.65;;
17886;SDS011;9069;52.044;7.472;2023-04-24T10:46:36;3.10;;;2.30;;
17886;SDS011;9069;52.044;7.472;2023-04-24T10:49:05;3.88;;;2.42;;
17886;SDS011;9069;52.044;7.472;2023-04-24T10:51:46;4.47;;;2.63;;
17886;SDS011;9069;52.044;7.472;2023-04-24T10:59:46;6.13;;;2.90;;
17886;SDS011;9069;52.044;7.472;2023-04-24T11:02:14;3.25;;;2.20;;
17886;SDS011;9069;52.044;7.472;2023-04-24T11:04:42;5.68;;;2.58;;
17886;SDS011;9069;52.044;7.472;2023-04-24T11:07:09;6.53;;;2.70;;
17886;SDS011;9069;52.044;7.472;2023-04-24T11:09:37;4.68;;;2.70;;
17886;SDS011;9069;52.044;7.472;2023-04-24T11:12:07;3.28;;;2.40;;
17886;SDS011;9069;52.044;7.472;2023-04-24T11:17:35;5.32;;;2.38;;
17886;SDS011;9069;52.044;7.472;2023-04-24T11:20:07;5.22;;;2.60;;
17886;SDS011;9069;52.044;7.472;2023-04-24T11:22:52;4.18;;;2.72;;
17886;SDS011;9069;52.044;7.472;2023-04-24T11:25:21;5.20;;;2.67;;
17886;SDS011;9069;52.044;7.472;2023-04-24T11:27:48;4.00;;;2.53;;
17886;SDS011;9069;52.044;7.472;2023-04-24T11:30:20;6.07;;;2.75;;
17886;SDS011;9069;52.044;7.472;2023-04-24T11:32:47;3.85;;;2.15;;
17886;SDS011;9069;52.044;7.472;2023-04-24T11:35:20;5.65;;;2.40;;
17886;SDS011;9069;52.044;7.472;2023-04-24T11:37:54;3.03;;;2.22;;
17886;SDS011;9069;52.044;7.472;2023-04-24T11:40:23;5.18;;;2.70;;
17886;SDS011;9069;52.044;7.472;2023-04-24T11:42:52;3.15;;;2.22;;
17886;SDS011;9069;52.044;7.472;2023-04-24T11:45:22;2.10;;;1.65;;
17886;SDS011;9069;52.044;7.472;2023-04-24T11:47:50;1.98;;;1.30;;
17886;SDS011;9069;52.044;7.472;2023-04-24T11:50:18;1.60;;;1.30;;
17886;SDS011;9069;52.044;7.472;2023-04-24T11:52:46;2.33;;;1.40;;
17886;SDS011;9069;52.044;7.472;2023-04-24T11:57:44;2.83;;;1.70;;
17886;SDS011;9069;52.044;7.472;2023-04-24T12:00:16;4.05;;;1.10;;
17886;SDS011;9069;52.044;7.472;2023-04-24T12:03:07;4.57;;;1.60;;
17886;SDS011;9069;52.044;7.472;2023-04-24T12:05:35;4.82;;;1.60;;
17886;SDS011;9069;52.044;7.472;2023-04-24T12:08:03;4.68;;;1.77;;
17886;SDS011;9069;52.044;7.472;2023-04-24T12:10:31;2.78;;;1.52;;
17886;SDS011;9069;52.044;7.472;2023-04-24T12:12:59;7.43;;;2.15;;
17886;SDS011;9069;52.044;7.472;2023-04-24T12:15:26;4.47;;;2.10;;
17886;SDS011;9069;52.044;7.472;2023-04-24T12:17:54;11.02;;;2.70;;
17886;SDS011;9069;52.044;7.472;2023-04-24T12:20:26;7.07;;;2.50;;
17886;SDS011;9069;52.044;7.472;2023-04-24T12:22:56;6.40;;;2.00;;
17886;SDS011;9069;52.044;7.472;2023-04-24T12:25:25;4.70;;;2.17;;
17886;SDS011;9069;52.044;7.472;2023-04-24T12:27:53;6.75;;;2.33;;
17886;SDS011;9069;52.044;7.472;2023-04-24T12:30:25;10.65;;;2.28;;
17886;SDS011;9069;52.044;7.472;2023-04-24T12:32:56;8.65;;;2.58;;
17886;SDS011;9069;52.044;7.472;2023-04-24T12:35:25;9.25;;;2.80;;
17886;SDS011;9069;52.044;7.472;2023-04-24T12:37:53;8.02;;;2.53;;
17886;SDS011;9069;52.044;7.472;2023-04-24T12:40:21;5.45;;;2.75;;
17886;SDS011;9069;52.044;7.472;2023-04-24T12:42:49;7.78;;;2.22;;
17886;SDS011;9069;52.044;7.472;2023-04-24T12:45:19;4.47;;;2.10;;
17886;SDS011;9069;52.044;7.472;2023-04-24T12:47:46;6.38;;;2.33;;
17886;SDS011;9069;52.044;7.472;2023-04-24T12:50:14;6.82;;;2.30;;
17886;SDS011;9069;52.044;7.472;2023-04-24T12:52:42;4.55;;;2.67;;
17886;SDS011;9069;52.044;7.472;2023-04-24T12:55:09;7.30;;;2.65;;
17886;SDS011;9069;52.044;7.472;2023-04-24T12:57:38;4.82;;;2.10;;
17886;SDS011;9069;52.044;7.472;2023-04-24T13:00:06;6.72;;;2.25;;
17886;SDS011;9069;52.044;7.472;2023-04-24T13:02:34;3.65;;;2.38;;
17886;SDS011;9069;52.044;7.472;2023-04-24T13:05:02;7.47;;;2.33;;
17886;SDS011;9069;52.044;7.472;2023-04-24T13:07:29;6.90;;;2.25;;
17886;SDS011;9069;52.044;7.472;2023-04-24T13:09:56;6.15;;;2.38;;
17886;SDS011;9069;52.044;7.472;2023-04-24T13:12:24;5.88;;;2.47;;
17886;SDS011;9069;52.044;7.472;2023-04-24T13:14:52;5.82;;;2.03;;
17886;SDS011;9069;52.044;7.472;2023-04-24T13:17:19;7.72;;;2.10;;
17886;SDS011;9069;52.044;7.472;2023-04-24T13:22:27;6.70;;;2.03;;
17886;SDS011;9069;52.044;7.472;2023-04-24T13:24:54;4.72;;;2.35;;
17886;SDS011;9069;52.044;7.472;2023-04-24T13:27:20;5.68;;;2.25;;
17886;SDS011;9069;52.044;7.472;2023-04-24T13:29:47;4.80;;;1.95;;
17886;SDS011;9069;52.044;7.472;2023-04-24T13:32:14;6.97;;;2.50;;
17886;SDS011;9069;52.044;7.472;2023-04-24T13:34:41;6.00;;;2.42;;
17886;SDS011;9069;52.044;7.472;2023-04-24T13:37:08;8.15;;;2.67;;
17886;SDS011;9069;52.044;7.472;2023-04-24T13:39:35;5.65;;;1.73;;
17886;SDS011;9069;52.044;7.472;2023-04-24T13:42:02;5.43;;;1.80;;
17886;SDS011;9069;52.044;7.472;2023-04-24T13:44:30;6.32;;;1.70;;
17886;SDS011;9069;52.044;7.472;2023-04-24T13:46:57;3.63;;;1.60;;
17886;SDS011;9069;52.044;7.472;2023-04-24T13:49:24;3.47;;;1.50;;
17886;SDS011;9069;52.044;7.472;2023-04-24T13:51:51;1.73;;;1.25;;
17886;SDS011;9069;52.044;7.472;2023-04-24T13:54:19;4.07;;;1.55;;
17886;SDS011;9069;52.044;7.472;2023-04-24T13:56:46;3.90;;;1.48;;
17886;SDS011;9069;52.044;7.472;2023-04-24T13:59:13;2.15;;;1.30;;
17886;SDS011;9069;52.044;7.472;2023-04-24T14:01:39;2.05;;;1.25;;
17886;SDS011;9069;52.044;7.472;2023-04-24T14:04:06;4.55;;;1.50;;
17886;SDS011;9069;52.044;7.472;2023-04-24T14:06:33;1.70;;;1.20;;
17886;SDS011;9069;52.044;7.472;2023-04-24T14:09:00;2.80;;;1.30;;
17886;SDS011;9069;52.044;7.472;2023-04-24T14:11:27;6.25;;;2.38;;
17886;SDS011;9069;52.044;7.472;2023-04-24T14:13:54;4.20;;;2.20;;
17886;SDS011;9069;52.044;7.472;2023-04-24T14:16:24;7.03;;;1.75;;
17886;SDS011;9069;52.044;7.472;2023-04-24T14:18:51;2.92;;;1.00;;
17886;SDS011;9069;52.044;7.472;2023-04-24T14:21:18;1.77;;;1.00;;
17886;SDS011;9069;52.044;7.472;2023-04-24T14:23:44;1.70;;;0.90;;
17886;SDS011;9069;52.044;7.472;2023-04-24T14:26:12;2.17;;;1.02;;
17886;SDS011;9069;52.044;7.472;2023-04-24T14:28:38;1.48;;;0.95;;
17886;SDS011;9069;52.044;7.472;2023-04-24T14:31:05;2.35;;;0.90;;
17886;SDS011;9069;52.044;7.472;2023-04-24T14:33:32;1.45;;;0.75;;
17886;SDS011;9069;52.044;7.472;2023-04-24T14:35:59;2.88;;;0.95;;
17886;SDS011;9069;52.044;7.472;2023-04-24T14:38:25;1.83;;;0.80;;
17886;SDS011;9069;52.044;7.472;2023-04-24T14:40:52;2.17;;;0.93;;
17886;SDS011;9069;52.044;7.472;2023-04-24T14:43:22;3.63;;;0.90;;
17886;SDS011;9069;52.044;7.472;2023-04-24T14:45:49;1.88;;;0.80;;
17886;SDS011;9069;52.044;7.472;2023-04-24T14:48:16;1.77;;;0.88;;
17886;SDS011;9069;52.044;7.472;2023-04-24T14:50:43;2.30;;;0.90;;
17886;SDS011;9069;52.044;7.472;2023-04-24T14:53:11;1.67;;;0.88;;
17886;SDS011;9069;52.044;7.472;2023-04-24T14:55:38;1.83;;;0.73;;
17886;SDS011;9069;52.044;7.472;2023-04-24T14:58:04;1.67;;;0.90;;
17886;SDS011;9069;52.044;7.472;2023-04-24T15:00:31;3.50;;;1.13;;
17886;SDS011;9069;52.044;7.472;2023-04-24T15:02:58;2.42;;;0.90;;
17886;SDS011;9069;52.044;7.472;2023-04-24T15:05:26;0.90;;;0.90;;
17886;SDS011;9069;52.044;7.472;2023-04-24T15:07:53;2.72;;;0.98;;
17886;SDS011;9069;52.044;7.472;2023-04-24T15:10:20;1.63;;;0.82;;
17886;SDS011;9069;52.044;7.472;2023-04-24T15:12:49;2.30;;;0.75;;
17886;SDS011;9069;52.044;7.472;2023-04-24T15:15:15;2.22;;;1.02;;
17886;SDS011;9069;52.044;7.472;2023-04-24T15:17:42;5.57;;;0.90;;
17886;SDS011;9069;52.044;7.472;2023-04-24T15:20:09;6.68;;;1.17;;
17886;SDS011;9069;52.044;7.472;2023-04-24T15:22:36;2.38;;;0.80;;
17886;SDS011;9069;52.044;7.472;2023-04-24T15:25:03;4.50;;;1.00;;
17886;SDS011;9069;52.044;7.472;2023-04-24T15:27:43;3.90;;;1.10;;